Time;durP1;ratioP1;P1;durP2;ratioP2;P2;SDS_P1;SDS_P2;PMS_P1;PMS_P2;Temp;Humidity;BMP_temperature;BMP_pressure;BME280_temperature;BME280_humidity;BME280_pressure;Samples;Min_cycle;Max_cycle;Signal;HPM_P1;HPM_P2
2022/06/23 00:02:37;;;;;;;180.52;141.00;;;;;;;28.11;57.22;100139.16;4988630;28;20038;-67
2022/06/23 00:05:11;;;;;;;170.07;137.50;;;;;;;28.07;57.65;100131.66;4988627;28;20038;-66
2022/06/23 00:07:38;;;;;;;151.52;123.72;;;;;;;28.08;57.18;100135.94;4988511;28;20044;-67
2022/06/23 00:10:16;;;;;;;135.45;108.38;;;;;;;28.06;57.41;100140.75;4987599;28;20092;-67
2022/06/23 00:12:44;;;;;;;122.30;99.97;;;;;;;28.07;57.33;100136.22;4988413;28;20034;-67
2022/06/23 00:15:09;;;;;;;110.80;88.20;;;;;;;28.06;57.34;100135.41;4987214;28;20053;-67
2022/06/23 00:17:44;;;;;;;108.65;89.82;;;;;;;28.04;57.27;100126.84;4988431;28;20034;-66
2022/06/23 00:20:24;;;;;;;107.85;87.47;;;;;;;28.03;56.95;100117.19;4988434;28;20042;-66
2022/06/23 00:22:58;;;;;;;109.40;83.28;;;;;;;28.03;57.23;100109.16;4987273;28;20038;-66
2022/06/23 00:25:27;;;;;;;91.03;71.75;;;;;;;28.02;57.26;100107.56;4988592;28;20382;-66
2022/06/23 00:27:53;;;;;;;83.35;68.35;;;;;;;28.02;56.87;100112.91;4988554;28;20442;-66
2022/06/23 00:30:35;;;;;;;83.72;67.30;;;;;;;28.03;56.94;100108.34;4987080;28;20030;-67
2022/06/23 00:33:14;;;;;;;76.63;60.60;;;;;;;28.02;56.85;100101.41;4988449;28;20034;-66
2022/06/23 00:35:39;;;;;;;78.55;59.88;;;;;;;28.03;56.84;100108.34;4988233;28;20521;-67
2022/06/23 00:38:05;;;;;;;86.38;69.80;;;;;;;28.03;57.20;100109.16;4988163;28;20030;-66
2022/06/23 00:40:30;;;;;;;111.43;89.63;;;;;;;28.04;56.78;100101.94;4986553;28;20066;-66
2022/06/23 00:43:01;;;;;;;109.68;86.60;;;;;;;28.05;56.91;100096.31;4988377;28;20030;-66
2022/06/23 00:45:55;;;;;;;91.88;73.03;;;;;;;28.05;56.75;100103.53;4987343;28;20030;-66
2022/06/23 00:48:43;;;;;;;70.85;57.28;;;;;;;28.03;56.76;100103.81;4988216;28;20406;-66
2022/06/23 00:51:16;;;;;;;70.45;52.72;;;;;;;28.03;56.75;100109.16;4986142;28;20045;-66
2022/06/23 00:53:59;;;;;;;45.97;34.88;;;;;;;28.04;56.61;100110.75;4988085;28;20026;-67
2022/06/23 00:56:54;;;;;;;35.05;26.98;;;;;;;28.03;56.78;100113.72;4988241;28;20114;-66
2022/06/23 00:59:32;;;;;;;34.05;25.75;;;;;;;28.01;56.95;100121.22;4990155;28;20038;-67
2022/06/23 01:01:59;;;;;;;29.30;20.40;;;;;;;28.01;56.91;100115.84;4990419;28;20106;-67
2022/06/23 01:04:49;;;;;;;27.40;19.55;;;;;;;28.01;56.97;100126.56;4991602;28;20485;-66
2022/06/23 01:07:42;;;;;;;24.60;15.52;;;;;;;27.98;56.86;100127.91;4991546;28;20398;-66
2022/06/23 01:10:20;;;;;;;22.70;16.25;;;;;;;27.99;56.92;100134.06;4991870;28;20065;-66
2022/06/23 01:13:07;;;;;;;18.88;14.32;;;;;;;27.96;57.21;100135.38;4990372;28;20395;-66
2022/06/23 01:15:46;;;;;;;22.02;13.80;;;;;;;27.97;56.55;100134.31;4990275;28;20050;-66
2022/06/23 01:18:15;;;;;;;18.88;13.93;;;;;;;27.98;56.93;100143.16;4990276;28;20035;-67
2022/06/23 01:20:57;;;;;;;16.42;12.55;;;;;;;27.97;56.69;100136.19;4991207;28;20037;-66
2022/06/23 01:23:31;;;;;;;15.95;11.00;;;;;;;27.97;56.90;100136.19;4989766;28;20033;-66
2022/06/23 01:26:34;;;;;;;15.37;11.23;;;;;;;27.93;56.98;100130.56;4991085;28;20046;-66
2022/06/23 01:29:22;;;;;;;15.48;10.00;;;;;;;27.93;56.79;100135.13;4973126;28;20038;-67
2022/06/23 01:32:16;;;;;;;13.65;10.23;;;;;;;27.95;57.02;100139.13;4990088;28;20029;-67
2022/06/23 01:34:48;;;;;;;12.35;10.25;;;;;;;27.94;56.76;100137.53;4975065;28;20046;-66
2022/06/23 01:37:25;;;;;;;13.95;10.15;;;;;;;27.96;57.05;100129.22;4991440;28;20037;-66
2022/06/23 01:40:18;;;;;;;12.85;9.65;;;;;;;27.96;56.82;100131.91;4990924;28;20034;-66
2022/06/23 01:42:55;;;;;;;13.48;8.35;;;;;;;27.96;57.08;100138.06;4987948;28;20034;-66
2022/06/23 01:45:43;;;;;;;13.38;7.60;;;;;;;27.96;57.03;100143.44;4991104;28;20038;-66
2022/06/23 01:51:38;;;;;;;9.38;7.10;;;;;;;27.95;56.63;100139.13;4990329;28;20116;-66
2022/06/23 01:54:16;;;;;;;8.55;6.03;;;;;;;27.97;56.68;100144.22;4980021;28;20460;-66
2022/06/23 01:57:07;;;;;;;8.52;5.88;;;;;;;27.96;56.92;100148.78;4990663;28;20038;-67
2022/06/23 02:00:01;;;;;;;8.57;5.88;;;;;;;27.97;57.16;100145.03;4990635;28;20046;-66
2022/06/23 02:02:56;;;;;;;7.60;5.75;;;;;;;27.95;57.09;100147.16;4989772;28;20061;-66
2022/06/23 02:05:26;;;;;;;6.20;4.80;;;;;;;27.94;57.46;100142.88;4989082;28;20125;-66
2022/06/23 02:08:15;;;;;;;13.15;6.32;;;;;;;27.95;57.11;100144.50;4990901;28;20030;-66
2022/06/23 02:10:52;;;;;;;7.95;4.85;;;;;;;27.92;56.86;100139.66;4989986;28;20030;-67
2022/06/23 02:13:26;;;;;;;10.07;4.25;;;;;;;27.93;57.11;100138.59;4990536;28;20030;-66
2022/06/23 02:16:01;;;;;;;7.15;4.13;;;;;;;27.92;57.08;100145.03;4988773;28;20129;-67
2022/06/23 02:18:34;;;;;;;6.75;4.63;;;;;;;27.90;57.00;100136.47;4990474;28;20076;-67
2022/06/23 02:21:21;;;;;;;6.60;3.50;;;;;;;27.89;56.62;100142.88;4990455;28;20386;-67
2022/06/23 02:23:56;;;;;;;7.03;4.38;;;;;;;27.88;56.80;100143.97;4990218;28;20186;-66
2022/06/23 02:26:26;;;;;;;8.82;4.75;;;;;;;27.89;56.45;100153.59;4988789;28;20478;-67
2022/06/23 02:29:03;;;;;;;9.82;4.65;;;;;;;27.89;56.48;100150.09;4990567;28;20045;-67
2022/06/23 02:31:41;;;;;;;8.80;4.72;;;;;;;27.88;56.59;100157.38;4988062;28;20438;-67
2022/06/23 02:34:30;;;;;;;7.32;3.92;;;;;;;27.86;56.69;100151.47;4989898;28;20034;-66
2022/06/23 02:37:33;;;;;;;7.38;4.20;;;;;;;27.86;56.60;100158.69;4988873;28;20092;-67
2022/06/23 02:39:59;;;;;;;4.50;4.10;;;;;;;27.86;56.50;100146.13;4977549;28;20510;-66
2022/06/23 02:42:37;;;;;;;4.82;3.40;;;;;;;27.88;56.58;100143.97;4988993;28;20040;-67
2022/06/23 02:45:27;;;;;;;6.55;3.72;;;;;;;27.88;56.62;100143.19;4989166;28;20360;-67
2022/06/23 02:47:52;;;;;;;6.60;4.05;;;;;;;27.88;56.44;100149.34;4989805;28;20060;-66
2022/06/23 02:50:39;;;;;;;5.93;4.10;;;;;;;27.90;56.38;100155.19;4989973;28;20231;-66
2022/06/23 02:53:26;;;;;;;4.95;3.90;;;;;;;27.89;56.34;100164.28;4988294;28;20366;-66
2022/06/23 02:55:51;;;;;;;6.78;4.35;;;;;;;27.89;56.25;100163.50;4989682;28;20038;-66
2022/06/23 02:58:21;;;;;;;4.80;3.63;;;;;;;27.90;56.10;100170.44;4989436;28;20435;-66
2022/06/23 03:01:02;;;;;;;7.18;4.18;;;;;;;27.88;56.48;100176.09;4988528;28;20498;-66
2022/06/23 03:03:38;;;;;;;5.90;3.75;;;;;;;27.89;56.02;100172.31;4988517;28;20034;-66
2022/06/23 03:06:22;;;;;;;7.05;4.63;;;;;;;27.87;56.06;100179.03;5212987;22;20198;-67
2022/06/23 03:08:53;;;;;;;5.60;3.90;;;;;;;27.86;56.12;100188.94;4952729;28;20451;-67
2022/06/23 03:11:51;;;;;;;7.72;4.05;;;;;;;27.86;56.01;100194.31;4969973;28;20034;-66
2022/06/23 03:14:32;;;;;;;8.05;3.92;;;;;;;27.82;55.65;100187.06;4970084;28;20065;-66
2022/06/23 03:17:27;;;;;;;6.32;4.60;;;;;;;27.80;56.01;100192.69;4969958;28;20490;-66
2022/06/23 03:20:24;;;;;;;9.30;4.80;;;;;;;27.79;55.92;100199.09;4947899;28;20050;-66
2022/06/23 03:23:04;;;;;;;8.93;4.03;;;;;;;27.79;55.91;100199.09;4964694;28;20042;-66
2022/06/23 03:25:54;;;;;;;11.20;4.55;;;;;;;27.75;55.93;100193.47;4969742;28;20497;-67
2022/06/23 03:28:31;;;;;;;7.82;4.38;;;;;;;27.74;55.85;100197.22;4969896;28;20116;-66
2022/06/23 03:31:06;;;;;;;5.95;3.58;;;;;;;27.76;55.93;100194.28;4969884;28;20058;-66
2022/06/23 03:33:46;;;;;;;6.68;3.50;;;;;;;27.74;55.93;100199.09;4969787;28;20482;-66
2022/06/23 03:36:24;;;;;;;8.98;3.95;;;;;;;27.75;55.63;100195.34;4969325;28;20031;-66
2022/06/23 03:42:10;;;;;;;5.22;3.22;;;;;;;27.74;55.59;100196.41;4969829;28;20096;-67
2022/06/23 03:45:03;;;;;;;6.18;3.80;;;;;;;27.75;55.67;100208.72;4969293;28;20502;-67
2022/06/23 03:47:54;;;;;;;9.20;4.60;;;;;;;27.77;55.48;100205.78;4969496;28;20034;-66
2022/06/23 03:50:20;;;;;;;7.65;4.05;;;;;;;27.76;55.62;100210.34;4946381;28;20046;-67
2022/06/23 03:52:50;;;;;;;6.43;3.72;;;;;;;27.77;55.51;100222.66;4969245;28;20027;-66
2022/06/23 03:55:26;;;;;;;7.03;3.88;;;;;;;27.77;55.42;100225.31;4968325;28;20034;-66
2022/06/23 03:57:56;;;;;;;7.50;4.28;;;;;;;27.78;55.13;100218.91;4969399;28;20037;-66
2022/06/23 04:00:28;;;;;;;6.95;4.20;;;;;;;27.78;55.48;100237.66;4969641;28;20038;-66
2022/06/23 04:03:23;;;;;;;6.47;4.03;;;;;;;27.75;55.57;100233.63;4969425;28;20039;-66
2022/06/23 04:05:54;;;;;;;6.80;4.68;;;;;;;27.75;55.35;100238.16;4967333;28;20079;-67
2022/06/23 04:08:26;;;;;;;8.70;3.40;;;;;;;27.77;55.33;100238.72;4969339;28;20035;-67
2022/06/23 04:10:55;;;;;;;10.05;4.38;;;;;;;27.76;55.72;100237.09;4969256;28;20035;-67
2022/06/23 04:13:30;;;;;;;7.47;3.78;;;;;;;27.75;55.37;100235.50;4969066;28;20043;-66
2022/06/23 04:16:03;;;;;;;8.43;4.00;;;;;;;27.73;55.60;100232.28;4969447;28;20078;-67
2022/06/23 04:18:31;;;;;;;6.07;3.67;;;;;;;27.73;55.70;100234.94;4969418;28;20033;-66
2022/06/23 04:21:03;;;;;;;6.25;3.78;;;;;;;27.71;55.68;100231.72;4969121;28;20529;-67
2022/06/23 04:23:33;;;;;;;6.45;3.92;;;;;;;27.70;55.42;100228.25;4969658;28;20502;-67
2022/06/23 04:25:59;;;;;;;6.57;4.20;;;;;;;27.70;55.56;100233.59;4969101;28;20085;-66
2022/06/23 04:28:45;;;;;;;6.63;3.63;;;;;;;27.67;55.50;100227.97;4969390;28;20034;-67
2022/06/23 04:31:18;;;;;;;7.22;4.18;;;;;;;27.68;55.21;100245.63;4969185;28;20090;-67
2022/06/23 04:33:46;;;;;;;6.00;3.53;;;;;;;27.68;55.55;100241.09;4970284;28;20034;-66
2022/06/23 04:36:33;;;;;;;5.53;3.88;;;;;;;27.68;55.26;100251.00;4972812;28;20487;-66
2022/06/23 04:39:08;;;;;;;5.43;3.38;;;;;;;27.68;55.71;100248.31;4955348;28;20387;-67
2022/06/23 04:41:36;;;;;;;6.93;3.72;;;;;;;27.70;55.41;100256.88;4972936;28;20258;-66
2022/06/23 04:44:11;;;;;;;5.28;3.60;;;;;;;27.70;55.26;100257.69;4972766;28;20074;-66
2022/06/23 04:46:42;;;;;;;;;;;;;;;27.63;55.45;100264.34;4972994;28;20386;-66
2022/06/23 04:49:18;;;;;;;3.95;3.60;;;;;;;27.65;55.60;100264.88;4972297;28;20381;-67
2022/06/23 04:52:18;;;;;;;7.47;3.60;;;;;;;27.67;55.71;100260.09;4972676;28;20026;-67
2022/06/23 04:54:50;;;;;;;6.05;3.33;;;;;;;27.68;55.60;100254.47;4968948;28;20082;-66
2022/06/23 04:57:21;;;;;;;9.25;4.88;;;;;;;27.71;55.37;100253.13;4972381;28;20530;-67
2022/06/23 04:59:52;;;;;;;7.55;3.83;;;;;;;27.71;55.52;100255.81;4972505;28;20045;-66
2022/06/23 05:02:23;;;;;;;8.27;3.35;;;;;;;27.72;55.30;100257.44;4972587;28;20038;-66
2022/06/23 05:05:19;;;;;;;4.93;3.35;;;;;;;27.70;55.09;100246.97;4972390;28;20391;-67
2022/06/23 05:07:53;;;;;;;;;;;;;;;27.63;55.65;100250.97;4972423;28;20074;-66
2022/06/23 05:10:29;;;;;;;6.40;3.83;;;;;;;27.66;55.65;100261.16;4972385;28;19933;-66
2022/06/23 05:12:58;;;;;;;4.68;3.55;;;;;;;27.70;55.67;100255.00;4972390;28;20034;-67
2022/06/23 05:15:29;;;;;;;9.85;4.45;;;;;;;27.71;55.31;100261.16;4972311;28;20107;-66
2022/06/23 05:18:00;;;;;;;6.32;3.33;;;;;;;27.71;55.14;100271.88;4972533;28;20474;-67
2022/06/23 05:20:34;;;;;;;6.80;3.65;;;;;;;27.71;55.19;100271.88;4972010;28;20043;-67
2022/06/23 05:23:02;;;;;;;6.40;3.55;;;;;;;27.71;55.60;100272.69;4971910;28;20031;-66
2022/06/23 05:25:36;;;;;;;7.43;3.70;;;;;;;27.72;55.73;100273.50;4972123;28;20030;-66
2022/06/23 05:28:06;;;;;;;9.32;3.88;;;;;;;27.70;55.31;100273.75;4971825;28;20490;-67
2022/06/23 05:30:41;;;;;;;9.82;4.03;;;;;;;27.71;55.39;100271.88;4971436;28;20086;-66
2022/06/23 05:33:30;;;;;;;5.30;3.35;;;;;;;27.69;55.35;100274.00;5009056;28;20512;-67
2022/06/23 05:36:05;;;;;;;6.70;4.28;;;;;;;27.70;55.41;100273.75;5010756;28;20504;-67
2022/06/23 05:38:41;;;;;;;5.22;3.60;;;;;;;27.70;55.34;100276.41;5010765;28;20033;-66
2022/06/23 05:41:22;;;;;;;6.97;3.53;;;;;;;27.71;55.37;100280.72;4994011;28;20041;-67
2022/06/23 05:43:50;;;;;;;4.15;2.83;;;;;;;27.73;55.61;100280.44;4991456;28;20030;-67
2022/06/23 05:46:22;;;;;;;7.97;4.15;;;;;;;27.72;55.31;100286.88;4989942;28;20054;-66
2022/06/23 05:49:00;;;;;;;7.80;4.28;;;;;;;27.72;55.47;100286.88;4990962;28;20030;-67
2022/06/23 05:51:45;;;;;;;7.82;3.95;;;;;;;27.72;55.69;100290.34;4989229;28;20027;-66
2022/06/23 05:54:21;;;;;;;8.40;4.72;;;;;;;27.70;55.58;100292.47;4991111;28;20046;-67
2022/06/23 05:56:46;;;;;;;9.82;4.90;;;;;;;27.64;56.12;100290.84;5006901;28;20033;-67
2022/06/23 05:59:24;;;;;;;12.00;4.90;;;;;;;27.59;56.35;100295.38;5010686;28;20103;-67
2022/06/23 06:01:57;;;;;;;9.98;5.22;;;;;;;27.50;56.59;100289.69;5000276;28;20057;-67
2022/06/23 06:04:31;;;;;;;12.73;5.00;;;;;;;27.38;56.68;100291.78;4998197;28;20034;-67
2022/06/23 06:06:58;;;;;;;9.43;4.82;;;;;;;27.36;57.13;100293.91;4990713;28;20050;-68
2022/06/23 06:09:39;;;;;;;7.15;4.70;;;;;;;27.40;56.69;100286.97;4990642;28;20117;-68
2022/06/23 06:12:19;;;;;;;9.02;4.68;;;;;;;27.38;57.19;100284.56;5005243;28;20445;-67
2022/06/23 06:14:57;;;;;;;12.65;4.75;;;;;;;27.35;56.80;100284.28;5010073;28;20077;-67
2022/06/23 06:17:25;;;;;;;10.02;4.72;;;;;;;27.38;57.08;100287.22;5009783;28;20571;-68
2022/06/23 06:19:53;;;;;;;12.88;4.28;;;;;;;27.38;57.05;100279.19;5009935;28;20029;-68
2022/06/23 06:22:44;;;;;;;7.82;5.30;;;;;;;27.36;56.87;100278.66;5007158;28;20553;-68
2022/06/23 06:25:25;;;;;;;6.35;4.18;;;;;;;27.38;56.83;100283.75;5008711;28;20519;-68
2022/06/23 06:27:53;;;;;;;11.73;4.68;;;;;;;27.39;56.87;100280.81;4970629;28;20042;-67
2022/06/23 06:30:23;;;;;;;8.40;4.80;;;;;;;27.43;56.83;100281.06;4970548;28;20113;-68
2022/06/23 06:32:49;;;;;;;9.10;4.57;;;;;;;27.43;56.76;100281.06;5001113;28;20042;-66
2022/06/23 06:35:15;;;;;;;8.20;5.28;;;;;;;27.45;56.72;100281.63;5009362;28;20434;-67
2022/06/23 06:37:45;;;;;;;7.15;4.55;;;;;;;27.46;56.59;100285.09;5009413;28;20353;-67
2022/06/23 06:40:12;;;;;;;7.38;4.72;;;;;;;27.44;56.44;100286.16;5009229;28;20053;-67
2022/06/23 06:42:42;;;;;;;9.93;4.90;;;;;;;27.44;56.57;100288.84;4989223;28;20084;-67
2022/06/23 06:45:12;;;;;;;7.43;4.38;;;;;;;27.43;56.56;100292.56;4989366;28;20501;-67
2022/06/23 06:47:40;;;;;;;14.82;5.20;;;;;;;27.44;57.18;100298.72;4989597;28;20481;-68
2022/06/23 06:50:28;;;;;;;12.38;4.82;;;;;;;27.47;57.50;100302.75;4989862;28;20033;-68
2022/06/23 06:52:54;;;;;;;13.45;4.85;;;;;;;27.51;56.83;100303.84;4989459;28;20045;-68
2022/06/23 06:55:22;;;;;;;6.90;3.78;;;;;;;27.53;56.74;100307.06;4989456;28;20509;-66
2022/06/23 06:57:52;;;;;;;12.35;5.85;;;;;;;27.60;57.95;100308.50;5005523;28;20139;-68
2022/06/23 07:00:32;;;;;;;9.65;4.68;;;;;;;27.64;57.56;100306.91;5008718;28;20034;-68
2022/06/23 07:03:00;;;;;;;8.82;4.30;;;;;;;27.65;57.56;100308.50;4989256;28;20084;-68
2022/06/23 07:05:39;;;;;;;7.43;4.00;;;;;;;27.66;57.10;100306.66;4988177;28;20045;-67
2022/06/23 07:08:20;;;;;;;12.43;3.47;;;;;;;27.63;56.87;100307.16;4989104;28;20046;-67
2022/06/23 07:10:54;;;;;;;8.18;3.65;;;;;;;27.64;56.60;100308.78;4989265;28;20164;-68
2022/06/23 07:13:34;;;;;;;6.63;3.90;;;;;;;27.62;55.98;100305.56;5007046;28;20569;-67
2022/06/23 07:16:18;;;;;;;8.02;3.25;;;;;;;27.64;55.67;100311.44;5006687;28;20030;-68
2022/06/23 07:18:56;;;;;;;4.25;2.80;;;;;;;27.64;55.40;100306.09;5008411;28;20105;-68
2022/06/23 07:21:36;;;;;;;6.47;2.70;;;;;;;27.64;55.25;100303.41;5006167;28;20026;-68
2022/06/23 07:24:14;;;;;;;5.90;2.67;;;;;;;27.64;54.29;100303.41;5007727;28;20446;-67
2022/06/23 07:26:51;;;;;;;6.53;2.42;;;;;;;27.63;54.37;100299.94;4994754;28;20475;-68
2022/06/23 07:29:28;;;;;;;6.70;2.65;;;;;;;27.65;54.33;100299.69;4988119;28;20046;-68
2022/06/23 07:32:03;;;;;;;6.53;3.00;;;;;;;27.66;53.99;100306.66;4989226;28;20121;-68
2022/06/23 07:34:36;;;;;;;9.05;3.47;;;;;;;27.67;54.40;100303.72;4989202;28;20073;-68
2022/06/23 07:37:26;;;;;;;9.25;3.00;;;;;;;27.69;54.08;100303.44;4990800;28;20115;-68
2022/06/23 07:39:59;;;;;;;7.60;3.92;;;;;;;27.68;54.48;100304.50;4999265;28;20050;-68
2022/06/23 07:42:49;;;;;;;6.90;3.35;;;;;;;27.68;54.50;100310.66;4989108;28;20213;-68
2022/06/23 07:45:18;;;;;;;12.13;3.42;;;;;;;27.71;54.77;100304.78;4988677;28;20494;-68
2022/06/23 07:47:43;;;;;;;6.93;3.75;;;;;;;27.71;55.05;100304.78;4997517;28;20034;-68
2022/06/23 07:50:09;;;;;;;8.85;4.60;;;;;;;27.72;54.89;100300.25;4964071;28;20447;-68
2022/06/23 07:52:35;;;;;;;5.78;3.70;;;;;;;27.73;55.09;100301.88;4969411;28;20053;-68
2022/06/23 07:55:02;;;;;;;8.93;3.92;;;;;;;27.71;54.69;100302.13;4977104;28;20057;-68
2022/06/23 07:57:30;;;;;;;13.23;4.32;;;;;;;27.71;54.41;100301.31;5006896;28;20030;-68
2022/06/23 08:00:00;;;;;;;9.50;4.32;;;;;;;27.71;54.74;100298.63;5007969;28;20033;-68
2022/06/23 08:02:38;;;;;;;10.73;5.07;;;;;;;27.71;54.66;100306.66;5008013;28;20030;-69
2022/06/23 08:05:27;;;;;;;8.80;4.22;;;;;;;27.70;54.69;100303.19;4984864;28;20041;-69
2022/06/23 08:07:55;;;;;;;5.47;4.10;;;;;;;27.73;54.52;100301.88;5005251;28;20062;-68
2022/06/23 08:10:24;;;;;;;6.40;4.10;;;;;;;27.71;54.03;100301.31;5002368;28;20033;-69
2022/06/23 08:12:57;;;;;;;13.35;4.32;;;;;;;27.69;53.55;100290.06;4992673;28;20038;-68
2022/06/23 08:18:33;;;;;;;6.63;4.65;;;;;;;27.70;53.87;100291.69;4983450;28;20087;-69
2022/06/23 08:21:19;;;;;;;8.25;4.05;;;;;;;27.70;53.96;100287.13;4990175;28;20034;-69
2022/06/23 08:23:55;;;;;;;9.23;4.45;;;;;;;27.72;53.78;100284.19;4991870;28;20049;-68
2022/06/23 08:26:22;;;;;;;8.32;4.50;;;;;;;27.73;53.68;100283.94;5002179;28;20053;-68
2022/06/23 08:28:53;;;;;;;8.15;4.18;;;;;;;27.74;53.64;100276.72;5012076;28;20029;-69
2022/06/23 08:31:19;;;;;;;11.55;3.90;;;;;;;27.76;53.09;100282.59;5009678;28;20563;-69
2022/06/23 08:33:45;;;;;;;8.43;4.22;;;;;;;27.76;52.69;100285.28;4989884;28;20034;-68
2022/06/23 08:36:15;;;;;;;11.85;3.67;;;;;;;27.76;52.14;100277.25;4992416;28;20371;-68
2022/06/23 08:38:57;;;;;;;7.38;3.75;;;;;;;27.74;52.09;100276.72;5011586;28;20022;-67
2022/06/23 08:41:47;;;;;;;8.95;3.35;;;;;;;27.73;51.74;100285.81;5008747;28;20045;-68
2022/06/23 08:44:31;;;;;;;10.57;3.80;;;;;;;27.74;51.44;100279.38;5011552;28;20057;-68
2022/06/23 08:47:18;;;;;;;12.55;3.83;;;;;;;27.75;51.00;100279.13;4989583;28;20041;-69
2022/06/23 08:50:16;;;;;;;9.73;3.67;;;;;;;27.77;50.94;100286.88;4988952;28;20434;-70
2022/06/23 08:53:14;;;;;;;6.97;3.33;;;;;;;27.74;50.71;100279.38;4954058;28;20367;-68
2022/06/23 08:56:08;;;;;;;6.90;3.30;;;;;;;27.75;51.29;100273.78;4968530;28;20054;-69
2022/06/23 08:58:52;;;;;;;5.82;3.35;;;;;;;27.77;50.91;100284.22;5006540;28;20103;-68
2022/06/23 09:01:50;;;;;;;6.93;2.60;;;;;;;27.78;50.70;100275.13;4990680;28;20379;-68
2022/06/23 09:04:32;;;;;;;8.43;3.00;;;;;;;27.78;50.17;100283.16;4988650;28;20044;-68
2022/06/23 09:07:16;;;;;;;7.30;3.40;;;;;;;27.82;50.22;100267.38;4988728;28;20049;-69
2022/06/23 09:09:51;;;;;;;9.35;3.17;;;;;;;27.86;50.43;100273.81;4990901;28;20041;-69
2022/06/23 09:12:35;;;;;;;6.97;2.83;;;;;;;27.88;50.33;100287.75;4984242;28;20046;-68
2022/06/23 09:15:14;;;;;;;7.97;3.15;;;;;;;27.87;49.85;100281.56;4991666;28;20121;-69
2022/06/23 09:18:03;;;;;;;9.90;2.88;;;;;;;27.88;49.16;100277.84;4990804;28;20123;-69
2022/06/23 09:21:18;;;;;;;5.13;2.95;;;;;;;27.89;49.35;100279.41;4990422;28;20038;-69
2022/06/23 09:24:04;;;;;;;6.82;2.85;;;;;;;27.90;49.63;100275.66;4972701;28;20476;-69
2022/06/23 09:26:32;;;;;;;5.72;2.67;;;;;;;27.91;49.40;100277.28;4994501;28;20556;-69
2022/06/23 09:29:19;;;;;;;7.10;2.60;;;;;;;27.94;49.37;100281.31;5011155;28;20046;-69
2022/06/23 09:31:44;;;;;;;5.40;3.10;;;;;;;27.93;49.20;100280.50;5010813;28;20037;-69
2022/06/23 09:34:16;;;;;;;8.90;2.35;;;;;;;27.96;49.59;100271.13;4990123;28;20038;-69
2022/06/23 09:37:00;;;;;;;8.07;2.67;;;;;;;27.97;48.98;100270.88;4989499;28;20041;-68
2022/06/23 09:39:31;;;;;;;10.00;2.50;;;;;;;27.98;48.60;100269.00;4991098;28;20137;-69
2022/06/23 09:42:02;;;;;;;8.75;3.08;;;;;;;28.00;48.90;100262.31;4996789;28;20481;-69
2022/06/23 09:44:55;;;;;;;9.20;2.45;;;;;;;28.02;48.45;100275.44;5006820;28;20034;-69
2022/06/23 09:47:30;;;;;;;8.18;2.38;;;;;;;28.01;48.32;100263.94;4982757;28;20069;-69
2022/06/23 09:50:07;;;;;;;6.60;2.30;;;;;;;28.00;48.65;100273.03;5010430;28;20025;-69
2022/06/23 09:52:46;;;;;;;6.65;1.63;;;;;;;28.00;48.20;100275.69;4999919;28;20273;-69
2022/06/23 09:55:49;;;;;;;8.27;2.42;;;;;;;27.99;48.73;100278.66;4990112;28;20034;-69
2022/06/23 09:58:34;;;;;;;7.80;2.70;;;;;;;28.01;48.69;100277.31;5003776;28;20030;-69
2022/06/23 10:01:03;;;;;;;11.18;2.35;;;;;;;28.05;48.43;100277.59;4982946;28;20038;-68
2022/06/23 10:03:40;;;;;;;7.82;2.95;;;;;;;28.05;48.38;100275.72;4985994;28;20375;-68
2022/06/23 10:06:21;;;;;;;5.85;2.35;;;;;;;28.07;48.14;100281.63;5008265;28;20383;-68
2022/06/23 10:09:12;;;;;;;8.02;2.28;;;;;;;28.08;47.87;100275.19;5007771;28;20563;-68
2022/06/23 10:11:57;;;;;;;7.18;2.28;;;;;;;28.13;47.96;100276.28;4988479;28;20042;-68
2022/06/23 10:14:52;;;;;;;9.50;2.65;;;;;;;28.16;47.45;100273.06;5010198;28;20030;-68
2022/06/23 10:17:45;;;;;;;6.55;2.33;;;;;;;28.14;47.19;100264.50;5009886;28;20034;-67
2022/06/23 10:20:23;;;;;;;7.68;2.50;;;;;;;28.19;47.59;100272.53;5009421;28;20034;-68
2022/06/23 10:23:17;;;;;;;7.60;2.42;;;;;;;28.25;47.43;100264.28;5004420;28;20034;-68
2022/06/23 10:25:48;;;;;;;9.00;2.70;;;;;;;28.26;47.80;100270.44;5009509;28;20297;-68
2022/06/23 10:28:57;;;;;;;7.15;2.25;;;;;;;28.25;47.72;100272.31;5008139;28;20368;-68
2022/06/23 10:31:39;;;;;;;6.63;2.40;;;;;;;28.24;47.97;100272.59;5009178;28;20034;-68
2022/06/23 10:34:43;;;;;;;8.80;2.60;;;;;;;28.25;48.11;100271.50;4995632;28;20462;-68
2022/06/23 10:37:29;;;;;;;7.07;2.38;;;;;;;28.29;47.69;100269.91;4987510;28;20029;-68
2022/06/23 10:40:13;;;;;;;7.47;2.22;;;;;;;28.31;47.60;100265.09;4989885;28;20086;-68
2022/06/23 10:43:15;;;;;;;7.47;2.50;;;;;;;28.36;46.77;100273.09;4991167;28;20034;-69
2022/06/23 10:45:55;;;;;;;9.68;2.50;;;;;;;28.36;46.84;100265.06;5009345;28;20132;-68
2022/06/23 10:48:40;;;;;;;6.35;2.50;;;;;;;28.40;47.09;100269.63;5009418;28;20247;-68
2022/06/23 10:51:31;;;;;;;9.38;2.58;;;;;;;28.38;46.91;100273.66;4971070;28;20042;-68
2022/06/23 10:54:27;;;;;;;10.38;2.50;;;;;;;28.34;46.83;100269.91;4950241;28;20046;-69
2022/06/23 10:57:23;;;;;;;12.00;2.63;;;;;;;28.34;47.04;100257.31;4970030;28;20034;-69
2022/06/23 11:00:02;;;;;;;7.38;2.45;;;;;;;28.36;47.22;100262.41;4969800;28;20122;-68
2022/06/23 11:03:00;;;;;;;6.05;2.55;;;;;;;28.38;47.08;100261.06;4970234;28;20386;-68
2022/06/23 11:06:16;;;;;;;6.63;2.35;;;;;;;28.38;47.53;100254.91;4961438;28;20050;-68
2022/06/23 11:09:01;;;;;;;8.00;2.40;;;;;;;28.39;47.37;100257.31;4952387;28;20054;-69
2022/06/23 11:11:56;;;;;;;7.90;2.80;;;;;;;28.42;47.18;100256.78;4970158;28;20038;-68
2022/06/23 11:14:25;;;;;;;;;;;;;;;28.37;46.90;100253.28;4997849;28;20091;-68
2022/06/23 11:17:16;;;;;;;6.40;2.17;;;;;;;28.39;47.05;100251.94;5009325;28;19922;-69
2022/06/23 11:20:16;;;;;;;10.88;2.80;;;;;;;28.41;46.36;100243.63;4928356;29;20526;-69
2022/06/23 11:22:53;;;;;;;4.88;2.10;;;;;;;28.44;46.77;100248.47;4928520;29;20039;-69
2022/06/23 11:25:42;;;;;;;4.40;1.95;;;;;;;28.50;46.65;100247.41;4919354;29;20420;-69
2022/06/23 11:28:13;;;;;;;7.03;2.17;;;;;;;28.52;46.96;100244.47;4924394;29;20043;-68
2022/06/23 11:31:00;;;;;;;10.30;3.05;;;;;;;28.55;47.03;100238.56;4909517;29;20052;-69
2022/06/23 11:33:39;;;;;;;8.75;2.00;;;;;;;28.56;46.68;100240.97;4909448;29;20040;-68
2022/06/23 11:36:34;;;;;;;5.97;2.15;;;;;;;28.56;46.97;100243.66;4908652;29;20048;-69
2022/06/23 11:39:18;;;;;;;6.25;1.98;;;;;;;28.53;46.61;100240.69;4908892;29;20581;-69
2022/06/23 11:41:43;;;;;;;7.65;2.13;;;;;;;28.55;46.74;100243.91;4909165;29;20028;-69
2022/06/23 11:44:33;;;;;;;5.90;1.80;;;;;;;28.54;46.38;100243.13;4916051;29;20556;-70
2022/06/23 11:47:31;;;;;;;3.53;1.60;;;;;;;28.55;46.36;100252.75;4917277;29;20040;-69
2022/06/23 11:50:20;;;;;;;6.03;2.15;;;;;;;28.55;46.32;100243.91;4890267;29;20100;-69
2022/06/23 11:52:54;;;;;;;5.03;1.90;;;;;;;28.57;46.74;100247.94;4903518;29;20083;-68
2022/06/23 11:55:31;;;;;;;6.28;1.83;;;;;;;28.60;46.77;100239.38;4906568;29;20048;-69
2022/06/23 11:58:13;;;;;;;3.88;1.85;;;;;;;28.59;46.70;100229.72;4980097;28;20077;-69
2022/06/23 12:00:44;;;;;;;4.93;1.35;;;;;;;28.61;46.94;100240.97;4991780;28;20034;-68
2022/06/23 12:03:34;;;;;;;5.88;2.60;;;;;;;28.65;48.01;100238.56;4984845;28;20486;-69
2022/06/23 12:06:23;;;;;;;9.27;3.10;;;;;;;28.65;49.73;100234.00;4989370;28;20062;-69
2022/06/23 12:09:19;;;;;;;7.70;3.40;;;;;;;28.69;51.25;100235.06;4959483;28;20042;-68
2022/06/23 12:11:45;;;;;;;8.40;3.42;;;;;;;28.73;51.96;100240.69;4988574;28;20033;-69
2022/06/23 12:14:14;;;;;;;8.73;3.70;;;;;;;28.74;52.65;100245.78;4990200;28;20038;-69
2022/06/23 12:17:04;;;;;;;17.77;5.25;;;;;;;28.74;53.40;100232.38;4987505;28;20042;-68
2022/06/23 12:20:08;;;;;;;11.00;4.78;;;;;;;28.69;54.11;100235.06;4974573;28;20353;-69
2022/06/23 12:22:52;;;;;;;10.98;4.10;;;;;;;28.66;53.88;100224.88;4986157;28;20130;-69
2022/06/23 12:25:32;;;;;;;8.23;3.80;;;;;;;28.66;54.40;100218.72;4985500;28;20034;-68
2022/06/23 12:28:13;;;;;;;8.65;3.90;;;;;;;28.66;53.77;100224.88;4987996;28;20413;-69